Kane, Texas
Current Conditions -  °F | °C
As of 2:53 PM on Friday 31 Oct 2014 (Local Time) from KMFE Reporting Station
Scattered Clouds Scattered Clouds  
Wind Chill: 77°   Ceiling: Unl
Heat Index: 79°   Visibility: 10mi
Dew Point: 65°   Wind: 17mph
Humidity: 66%   Direction: 20°NNE
Pressure: 30.15"   Gusts: 23mph
Location:  26.2031°N, 98.2299°W
Report Text: KMFE 311953Z 02015G20KT 10SM SCT025 25/18 A3015 RMK AO2 SLP208 T02500183 $
Loading
Personal Weather Stations






























Interactive Weather Map
Tropical Storm Tracking
New forecast layout! Learn more

10-Day Weather Forecast

Advertisements
Track Severe Weather on mobile